Pagrindinis puslapis
METAR-TAF:

METAR-TAF

Oro uostai :

Urugvajana, Pietų Rio Grandė, Brazilija

platuma: 29-47S, ilguma: 057-02W, Aukštis: 74 m

Dabartinis oras

Ataskaita buvo paskelbta 25 minutes, ne 21:00 UTC
Vėjas 8 kt iš Pietų
Temperatūra 20°C
Drėgmė 30%
Slėgis 1020 hPa
Matomumas 10 km arba daugiau
nėra debesų žemiau 1500 m ir nėra kamuolinių lietaus debesų

METAR: SBUG 212100Z 17008KT CAVOK 20/02 Q1020

Laikas: 18:25 (21:25 UTC)

Prognozė

Ataskaita buvo paskelbta 5 valandos ir 55 minutes, ne 15:30 UTC
Prognozė galioja nuo 21 metu 18 UTC su 22 metu 06 UTC
Vėjas 6 kt iš Rytų/Pietryčių
Matomumas 10 km arba daugiau
nėra debesų žemiau 1500 m ir nėra kamuolinių lietaus debesų

TAF: SBUG 211530Z 2118/2206 12006KT CAVOK TX23/2118Z TN13/2206Z RMK PER

Orai ataskaitas ir orų prognozės (METAR, TAF).

turimą stotys yra geltonos ir raudonos taškus žemėlapyje.

Perkelti pele per norėdami pamatyti stoties vardą.

Tada spustelėkite, norėdami matyti oro stebėjimo ir prognozės.

Norėdami pakeisti žemėlapį: spustelėkite ant žalios mygtukų su juodo kryžiaus žemyn,; žalią mygtuką su brūkšneliu, jei norite nutolinti; arba žalių rodyklių gretimoms žemėlapius.


METAR-TAF: